Time;durP1;ratioP1;P1;durP2;ratioP2;P2;SDS_P1;SDS_P2;PMS_P1;PMS_P2;Temp;Humidity;BMP_temperature;BMP_pressure;BME280_temperature;BME280_humidity;BME280_pressure;Samples;Min_cycle;Max_cycle;Signal;HPM_P1;HPM_P2
2022/03/24 00:00:53;;;;;;;18.00;10.17;;;13.10;1.00;;;;;;5060293;28;20491;-78
2022/03/24 00:03:21;;;;;;;14.20;10.07;;;13.10;1.00;;;;;;5058843;28;20550;-76
2022/03/24 00:05:54;;;;;;;12.97;8.93;;;13.00;1.00;;;;;;5063977;28;20481;-76
2022/03/24 00:08:22;;;;;;;13.57;10.00;;;13.00;1.00;;;;;;5060589;28;20548;-77
2022/03/24 00:10:50;;;;;;;13.17;9.97;;;13.00;1.00;;;;;;5064099;28;20614;-79
2022/03/24 00:13:20;;;;;;;14.23;9.67;;;13.00;1.00;;;;;;5062806;28;20456;-77
2022/03/24 00:15:48;;;;;;;14.53;9.30;;;12.90;1.00;;;;;;5062636;28;20460;-78
2022/03/24 00:18:16;;;;;;;12.50;9.67;;;12.90;1.00;;;;;;5063498;28;20474;-77
2022/03/24 00:20:45;;;;;;;12.90;10.40;;;12.80;1.00;;;;;;5063857;28;20443;-77
2022/03/24 00:23:13;;;;;;;11.60;8.63;;;12.80;1.00;;;;;;5061725;28;20273;-79
2022/03/24 00:25:41;;;;;;;13.83;8.40;;;12.90;1.00;;;;;;5059335;28;20491;-78
2022/03/24 00:28:09;;;;;;;14.30;8.80;;;12.90;1.00;;;;;;5066516;28;20504;-77
2022/03/24 00:30:39;;;;;;;14.50;8.77;;;12.80;1.00;;;;;;5063823;28;20493;-78
2022/03/24 00:33:07;;;;;;;13.03;8.20;;;12.60;1.00;;;;;;5066242;28;20458;-78
2022/03/24 00:35:37;;;;;;;12.93;10.77;;;12.60;1.00;;;;;;5057235;28;20480;-76
2022/03/24 00:38:06;;;;;;;15.87;9.00;;;12.50;1.00;;;;;;5062294;28;20969;-77
2022/03/24 00:40:34;;;;;;;15.10;9.70;;;12.70;1.00;;;;;;5059258;28;20473;-77
2022/03/24 00:43:02;;;;;;;15.03;10.07;;;12.50;1.00;;;;;;5064543;28;20460;-76
2022/03/24 00:45:30;;;;;;;18.63;10.50;;;12.50;1.00;;;;;;5066713;28;20432;-77
2022/03/24 00:48:00;;;;;;;12.10;7.87;;;12.50;1.00;;;;;;5064784;28;20871;-76
2022/03/24 00:50:28;;;;;;;15.30;9.40;;;12.40;1.00;;;;;;5059799;28;22301;-76
2022/03/24 00:52:56;;;;;;;12.00;8.60;;;12.40;1.00;;;;;;5059004;28;20787;-76
2022/03/24 00:55:25;;;;;;;11.17;9.10;;;12.40;1.00;;;;;;5059156;28;20929;-77
2022/03/24 00:57:54;;;;;;;12.23;9.47;;;12.50;1.00;;;;;;5058646;28;20467;-75
2022/03/24 01:00:25;;;;;;;13.00;9.30;;;12.40;1.00;;;;;;5056611;28;20860;-76
2022/03/24 01:02:55;;;;;;;12.07;8.87;;;12.40;1.00;;;;;;5060304;28;20513;-77
2022/03/24 01:05:28;;;;;;;10.93;8.80;;;12.40;1.00;;;;;;5061223;28;20993;-76
2022/03/24 01:07:56;;;;;;;13.60;8.20;;;12.30;1.00;;;;;;5058020;28;20475;-77
2022/03/24 01:10:25;;;;;;;12.80;9.00;;;12.20;1.00;;;;;;5056319;28;20443;-76
2022/03/24 01:12:55;;;;;;;11.60;8.90;;;12.20;1.00;;;;;;5056967;28;20477;-76
2022/03/24 01:15:26;;;;;;;10.83;6.90;;;12.20;1.00;;;;;;5056860;28;20462;-76
2022/03/24 01:18:00;;;;;;;11.53;8.47;;;12.20;1.00;;;;;;5060887;28;20468;-76
2022/03/24 01:20:31;;;;;;;14.77;8.20;;;12.20;1.00;;;;;;5055907;28;20479;-77
2022/03/24 01:23:00;;;;;;;12.77;8.60;;;12.10;1.00;;;;;;5058927;28;20467;-77
2022/03/24 01:25:29;;;;;;;13.57;8.93;;;12.10;1.00;;;;;;5060200;28;20462;-77
2022/03/24 01:27:57;;;;;;;13.13;9.87;;;12.10;1.00;;;;;;5062580;28;20478;-76
2022/03/24 01:30:25;;;;;;;12.50;10.10;;;12.00;1.00;;;;;;5057180;28;20836;-76
2022/03/24 01:32:53;;;;;;;11.20;7.80;;;12.00;1.00;;;;;;5060278;28;20454;-77
2022/03/24 01:35:23;;;;;;;13.27;9.57;;;11.90;1.00;;;;;;5063114;28;20455;-76
2022/03/24 01:37:52;;;;;;;14.60;8.87;;;11.90;1.00;;;;;;5058588;28;20466;-76
2022/03/24 01:40:20;;;;;;;13.27;9.37;;;11.90;1.00;;;;;;5059624;28;20460;-77
2022/03/24 01:42:49;;;;;;;13.60;9.20;;;11.90;1.00;;;;;;5059141;28;20954;-79
2022/03/24 01:45:17;;;;;;;15.73;9.50;;;11.90;1.00;;;;;;5058312;28;20462;-78
2022/03/24 01:47:45;;;;;;;15.50;9.97;;;11.80;1.00;;;;;;5062824;28;20502;-76
2022/03/24 01:50:13;;;;;;;12.57;8.40;;;11.80;1.00;;;;;;5057302;28;20451;-77
2022/03/24 01:52:43;;;;;;;14.80;9.10;;;11.80;1.00;;;;;;5063794;28;20463;-77
2022/03/24 01:55:14;;;;;;;12.60;8.97;;;11.90;1.00;;;;;;5059903;28;20459;-78
2022/03/24 01:57:45;;;;;;;14.97;9.00;;;11.80;1.00;;;;;;5066282;28;21248;-78
2022/03/24 02:00:14;;;;;;;14.90;10.20;;;11.80;1.00;;;;;;5061180;28;20515;-78
2022/03/24 02:02:45;;;;;;;9.93;7.37;;;11.70;1.00;;;;;;5062279;28;20491;-79
2022/03/24 02:05:14;;;;;;;14.03;8.83;;;11.70;1.00;;;;;;5055874;28;20451;-79
2022/03/24 02:07:42;;;;;;;14.47;9.80;;;11.50;1.00;;;;;;5059890;28;20471;-79
2022/03/24 02:10:12;;;;;;;13.40;9.27;;;11.60;1.00;;;;;;5057013;28;20541;-77
2022/03/24 02:12:43;;;;;;;13.53;9.63;;;11.80;1.00;;;;;;5058201;28;20508;-78
2022/03/24 02:15:11;;;;;;;16.00;9.77;;;11.70;1.00;;;;;;5058415;28;20446;-78
2022/03/24 02:17:41;;;;;;;12.70;9.30;;;11.60;1.00;;;;;;5063370;28;20822;-77
2022/03/24 02:20:10;;;;;;;11.30;7.80;;;11.50;1.00;;;;;;5056833;28;20459;-78
2022/03/24 02:22:40;;;;;;;10.90;8.17;;;11.60;1.00;;;;;;5057103;28;20529;-80
2022/03/24 02:25:09;;;;;;;11.80;8.50;;;11.50;1.00;;;;;;5059895;28;20520;-78
2022/03/24 02:27:38;;;;;;;11.73;7.83;;;11.50;1.00;;;;;;5062664;28;20933;-77
2022/03/24 02:30:08;;;;;;;12.77;8.20;;;11.50;1.00;;;;;;5060578;28;20442;-76
2022/03/24 02:32:36;;;;;;;12.63;8.57;;;11.50;1.00;;;;;;5056412;28;20949;-77
2022/03/24 02:35:05;;;;;;;12.33;8.67;;;11.40;1.00;;;;;;5060637;28;20458;-77
2022/03/24 02:37:33;;;;;;;10.50;7.73;;;11.40;1.00;;;;;;5058061;28;20474;-79
2022/03/24 02:40:03;;;;;;;13.37;9.23;;;11.40;1.00;;;;;;5059135;28;20447;-79
2022/03/24 02:42:32;;;;;;;11.53;8.17;;;11.40;1.00;;;;;;5059980;28;20490;-77
2022/03/24 02:45:04;;;;;;;14.80;9.17;;;11.30;1.00;;;;;;5061465;28;20453;-76
2022/03/24 02:47:32;;;;;;;14.43;7.97;;;11.20;1.00;;;;;;5062844;28;21079;-77
2022/03/24 02:50:01;;;;;;;13.17;8.67;;;11.30;1.00;;;;;;5057133;28;20447;-78
2022/03/24 02:52:29;;;;;;;12.20;7.77;;;11.20;1.00;;;;;;5063022;28;20457;-78
2022/03/24 02:54:57;;;;;;;10.77;8.53;;;11.20;1.00;;;;;;5061618;28;20464;-76
2022/03/24 02:57:27;;;;;;;11.40;8.33;;;11.20;1.00;;;;;;5058636;28;20472;-77
2022/03/24 02:59:56;;;;;;;14.80;9.10;;;11.20;1.00;;;;;;5055640;28;20447;-77
2022/03/24 03:02:24;;;;;;;13.60;8.80;;;11.20;1.00;;;;;;5064610;28;20818;-79
2022/03/24 03:04:53;;;;;;;9.43;8.17;;;11.20;1.00;;;;;;5056948;28;20976;-78
2022/03/24 03:07:22;;;;;;;13.60;8.97;;;11.20;1.00;;;;;;5058078;28;20509;-77
2022/03/24 03:09:51;;;;;;;12.70;9.23;;;11.20;1.00;;;;;;5054275;28;20521;-76
2022/03/24 03:12:19;;;;;;;16.67;8.90;;;11.10;1.00;;;;;;5057895;28;20461;-77
2022/03/24 03:14:49;;;;;;;18.53;10.13;;;11.10;1.00;;;;;;5055661;28;20443;-77
2022/03/24 03:17:17;;;;;;;12.80;8.17;;;11.00;1.00;;;;;;5055063;28;20873;-76
2022/03/24 03:19:46;;;;;;;13.93;8.13;;;11.00;1.00;;;;;;5054873;28;20463;-76
2022/03/24 03:22:15;;;;;;;12.53;9.40;;;11.10;1.00;;;;;;5056626;28;20506;-75
2022/03/24 03:24:43;;;;;;;13.67;9.00;;;11.00;1.00;;;;;;5061215;28;20554;-77
2022/03/24 03:27:12;;;;;;;14.83;9.63;;;10.90;1.00;;;;;;5058374;28;21063;-76
2022/03/24 03:29:41;;;;;;;14.17;9.00;;;10.90;1.00;;;;;;5059539;28;20446;-76
2022/03/24 03:32:11;;;;;;;13.30;8.60;;;10.90;1.00;;;;;;5058392;28;21082;-78
2022/03/24 03:34:41;;;;;;;14.80;9.47;;;10.80;1.00;;;;;;5061744;28;20996;-80
2022/03/24 03:37:11;;;;;;;9.90;8.43;;;10.80;1.00;;;;;;5058448;28;20458;-77
2022/03/24 03:39:39;;;;;;;11.03;8.60;;;10.80;1.00;;;;;;5061679;28;20460;-78
2022/03/24 03:42:08;;;;;;;15.47;9.50;;;10.80;1.00;;;;;;5059736;28;20482;-77
2022/03/24 03:44:36;;;;;;;12.07;8.03;;;10.80;1.00;;;;;;5059181;28;20588;-77
2022/03/24 03:47:05;;;;;;;14.73;9.40;;;10.80;1.00;;;;;;5059350;28;20874;-77
2022/03/24 03:49:35;;;;;;;10.70;7.80;;;10.70;1.00;;;;;;5058606;28;20459;-77
2022/03/24 03:52:23;;;;;;;10.23;8.13;;;10.70;1.00;;;;;;5056157;28;20793;-78
2022/03/24 03:54:52;;;;;;;13.13;7.80;;;10.70;1.00;;;;;;5060810;28;20464;-77
2022/03/24 03:57:20;;;;;;;14.30;8.30;;;10.70;1.00;;;;;;5057289;28;20479;-77
2022/03/24 03:59:48;;;;;;;13.63;8.73;;;10.60;1.00;;;;;;5058558;28;20477;-77
2022/03/24 04:02:16;;;;;;;13.63;9.30;;;10.60;1.00;;;;;;5057484;28;20486;-77
2022/03/24 04:04:46;;;;;;;13.00;8.50;;;10.80;1.00;;;;;;5056333;28;20529;-75
2022/03/24 04:07:15;;;;;;;12.70;8.60;;;10.60;1.00;;;;;;5058808;28;20879;-75
2022/03/24 04:09:43;;;;;;;13.97;9.40;;;10.60;1.00;;;;;;5058745;28;20445;-77
2022/03/24 04:12:11;;;;;;;14.50;9.27;;;10.60;1.00;;;;;;5057047;28;20456;-75
2022/03/24 04:14:40;;;;;;;13.43;8.57;;;10.60;1.00;;;;;;5063007;28;20455;-75
2022/03/24 04:17:08;;;;;;;16.77;10.10;;;10.50;1.00;;;;;;5061664;28;20454;-77
2022/03/24 04:19:37;;;;;;;15.83;8.83;;;10.50;1.00;;;;;;5061043;28;20500;-76
2022/03/24 04:22:06;;;;;;;14.77;8.10;;;10.50;1.00;;;;;;5059414;28;20461;-77
2022/03/24 04:24:34;;;;;;;11.93;8.67;;;10.30;1.00;;;;;;5061504;28;20951;-76
2022/03/24 04:27:03;;;;;;;12.37;9.37;;;10.40;1.00;;;;;;5059628;28;20459;-77
2022/03/24 04:29:31;;;;;;;16.50;8.83;;;10.40;1.00;;;;;;5065963;28;20454;-76
2022/03/24 04:31:59;;;;;;;13.87;9.47;;;10.40;1.00;;;;;;5059495;28;20454;-76
2022/03/24 04:34:27;;;;;;;14.23;8.23;;;10.30;1.00;;;;;;5062322;28;20488;-76
2022/03/24 04:36:55;;;;;;;12.60;9.93;;;10.40;1.00;;;;;;5063770;28;20949;-76
2022/03/24 04:39:25;;;;;;;13.63;12.23;;;10.40;1.00;;;;;;5056721;28;21257;-77
2022/03/24 04:41:54;;;;;;;10.10;8.97;;;10.30;1.00;;;;;;5064244;28;20528;-78
2022/03/24 04:44:22;;;;;;;11.60;9.13;;;10.40;1.00;;;;;;5064517;28;20841;-79
2022/03/24 04:46:50;;;;;;;12.93;8.97;;;10.40;1.00;;;;;;5062204;28;21052;-76
2022/03/24 04:49:18;;;;;;;14.20;9.37;;;10.40;1.00;;;;;;5061354;28;20474;-78
2022/03/24 04:51:47;;;;;;;14.40;9.10;;;10.40;1.00;;;;;;5055259;28;20520;-77
2022/03/24 04:54:15;;;;;;;12.73;8.10;;;10.30;1.00;;;;;;5062505;28;20454;-76
2022/03/24 04:56:45;;;;;;;13.47;9.30;;;10.40;1.00;;;;;;5059289;28;20447;-77
2022/03/24 04:59:13;;;;;;;13.40;9.40;;;10.30;1.00;;;;;;5059423;28;20509;-77
2022/03/24 05:01:41;;;;;;;12.90;9.20;;;10.30;1.00;;;;;;5060603;28;20473;-77
2022/03/24 05:04:10;;;;;;;15.70;9.73;;;10.30;1.00;;;;;;5059739;28;21266;-77
2022/03/24 05:06:38;;;;;;;13.93;9.03;;;10.20;1.00;;;;;;5061881;28;20461;-77
2022/03/24 05:09:06;;;;;;;14.87;10.97;;;10.20;1.00;;;;;;5062839;28;20463;-78
2022/03/24 05:11:34;;;;;;;14.37;9.57;;;10.10;1.00;;;;;;5060331;28;20450;-78
2022/03/24 05:14:04;;;;;;;15.83;9.60;;;10.10;1.00;;;;;;5058907;28;20455;-78
2022/03/24 05:16:32;;;;;;;12.73;8.00;;;10.10;1.00;;;;;;5055984;28;20500;-77
2022/03/24 05:19:00;;;;;;;12.60;10.30;;;10.10;1.00;;;;;;5061148;28;20481;-77
2022/03/24 05:21:28;;;;;;;12.13;8.10;;;10.10;1.00;;;;;;5057324;28;20499;-80
2022/03/24 05:23:57;;;;;;;13.37;9.13;;;10.10;1.00;;;;;;5060718;28;20930;-77
2022/03/24 05:26:25;;;;;;;16.07;10.57;;;10.20;1.00;;;;;;5062909;28;20472;-78
2022/03/24 05:28:54;;;;;;;13.17;9.30;;;10.20;1.00;;;;;;5060029;28;20572;-77
2022/03/24 05:31:25;;;;;;;12.13;9.13;;;10.20;1.00;;;;;;5058382;28;20534;-77
2022/03/24 05:33:53;;;;;;;16.10;8.67;;;10.20;1.00;;;;;;5056113;28;20530;-77
2022/03/24 05:36:21;;;;;;;13.10;9.60;;;10.10;1.00;;;;;;5059198;28;20950;-79
2022/03/24 05:38:51;;;;;;;12.30;8.53;;;10.00;1.00;;;;;;5062615;28;20471;-78
2022/03/24 05:41:19;;;;;;;15.60;9.07;;;10.00;1.00;;;;;;5068159;28;20450;-78
2022/03/24 05:46:31;;;;;;;12.60;9.13;;;10.00;1.00;;;;;;5067816;28;20990;-78
2022/03/24 05:49:00;;;;;;;13.87;9.23;;;10.00;1.00;;;;;;5058839;28;20483;-76
2022/03/24 05:51:28;;;;;;;13.83;8.73;;;10.00;1.00;;;;;;5062976;28;20478;-77
2022/03/24 05:53:57;;;;;;;15.90;9.13;;;10.00;1.00;;;;;;5055778;28;20447;-76
2022/03/24 05:56:25;;;;;;;16.90;9.30;;;9.90;1.00;;;;;;5054029;28;20454;-76
2022/03/24 05:58:55;;;;;;;12.67;9.63;;;9.90;1.00;;;;;;5064668;28;21138;-77
2022/03/24 06:01:24;;;;;;;13.20;9.23;;;9.90;1.00;;;;;;5060873;28;20455;-76
2022/03/24 06:03:55;;;;;;;12.40;9.07;;;10.00;1.00;;;;;;5049467;28;20503;-77
2022/03/24 06:06:23;;;;;;;13.40;10.07;;;10.10;1.00;;;;;;5056683;28;20455;-78
2022/03/24 06:08:52;;;;;;;14.77;9.17;;;10.10;1.00;;;;;;5059897;28;20904;-76
2022/03/24 06:11:21;;;;;;;13.73;9.03;;;9.90;1.00;;;;;;5059351;28;20461;-76
2022/03/24 06:13:49;;;;;;;12.90;9.17;;;9.90;1.00;;;;;;5058146;28;20471;-77
2022/03/24 06:16:18;;;;;;;10.83;8.27;;;10.00;1.00;;;;;;5062837;28;20470;-75
2022/03/24 06:18:47;;;;;;;12.20;8.17;;;10.10;1.00;;;;;;5067512;28;21091;-76
2022/03/24 06:21:16;;;;;;;11.93;9.43;;;10.10;1.00;;;;;;5064327;28;20458;-76
2022/03/24 06:23:45;;;;;;;18.20;11.75;;;10.10;1.00;;;;;;5057035;28;21041;-76
2022/03/24 06:26:13;;;;;;;14.63;10.47;;;10.30;1.00;;;;;;5060978;28;20196;-75
2022/03/24 06:28:41;;;;;;;14.33;9.93;;;10.40;1.00;;;;;;5062833;28;20477;-76
2022/03/24 06:31:12;;;;;;;14.97;10.17;;;10.60;1.00;;;;;;5061103;28;20492;-77
2022/03/24 06:33:40;;;;;;;17.70;9.73;;;10.70;1.00;;;;;;5061482;28;20456;-76
2022/03/24 06:36:10;;;;;;;12.47;9.17;;;10.90;1.00;;;;;;5058253;28;20462;-77
2022/03/24 06:38:39;;;;;;;15.52;10.70;;;11.20;1.00;;;;;;5055860;28;20443;-76
2022/03/24 06:41:07;;;;;;;15.63;10.70;;;11.10;1.00;;;;;;5061989;28;20197;-76
2022/03/24 06:43:35;;;;;;;16.83;10.40;;;11.20;1.00;;;;;;5059708;28;20478;-75
2022/03/24 06:46:06;;;;;;;14.50;9.80;;;11.30;1.00;;;;;;5059456;28;20516;-77
2022/03/24 06:48:34;;;;;;;14.57;9.37;;;11.30;1.00;;;;;;5061205;28;20574;-76
2022/03/24 06:51:03;;;;;;;15.70;10.30;;;11.50;1.00;;;;;;5059717;28;20461;-78
2022/03/24 06:53:31;;;;;;;13.57;10.63;;;11.60;1.00;;;;;;5060986;28;20462;-76
2022/03/24 06:56:01;;;;;;;13.23;9.80;;;11.70;1.00;;;;;;5056462;28;20537;-77
2022/03/24 06:58:29;;;;;;;19.70;11.70;;;11.80;1.00;;;;;;5055191;28;20481;-77
2022/03/24 07:00:57;;;;;;;12.67;9.50;;;11.90;1.00;;;;;;5061242;28;20459;-77
2022/03/24 07:03:26;;;;;;;15.30;10.50;;;12.00;1.00;;;;;;5057423;28;20454;-77
2022/03/24 07:05:54;;;;;;;14.80;10.13;;;12.10;1.00;;;;;;5059757;28;20452;-76
2022/03/24 07:08:23;;;;;;;16.97;10.67;;;12.30;1.00;;;;;;5059641;28;20490;-75
2022/03/24 07:10:51;;;;;;;16.77;11.20;;;12.20;1.00;;;;;;5056138;28;20451;-75
2022/03/24 07:13:21;;;;;;;15.87;10.90;;;12.20;1.00;;;;;;5055958;28;20473;-77
2022/03/24 07:15:49;;;;;;;18.23;11.67;;;12.30;1.00;;;;;;5057433;28;20462;-76
2022/03/24 07:18:17;;;;;;;17.53;10.70;;;12.40;1.00;;;;;;5055492;28;20479;-76
2022/03/24 07:20:45;;;;;;;15.87;11.23;;;12.40;1.00;;;;;;5058711;28;20454;-75
2022/03/24 07:23:14;;;;;;;15.37;10.30;;;12.50;1.00;;;;;;5059591;28;20476;-76
2022/03/24 07:25:42;;;;;;;16.40;11.83;;;12.60;1.00;;;;;;5057301;28;20471;-76
2022/03/24 07:28:11;;;;;;;12.70;10.07;;;12.80;1.00;;;;;;5058149;28;20487;-76
2022/03/24 07:30:42;;;;;;;17.50;9.67;;;12.90;1.00;;;;;;5059326;28;20458;-75
2022/03/24 07:33:11;;;;;;;15.60;10.30;;;13.00;1.00;;;;;;5051917;28;20448;-76
2022/03/24 07:35:40;;;;;;;13.50;10.60;;;13.00;1.00;;;;;;5050159;28;20451;-77
2022/03/24 07:38:09;;;;;;;17.70;11.03;;;13.10;1.00;;;;;;5060302;28;20496;-77
2022/03/24 07:40:37;;;;;;;17.23;11.57;;;13.10;1.00;;;;;;5056876;28;20966;-76
2022/03/24 07:43:06;;;;;;;15.10;10.90;;;13.20;1.00;;;;;;5056717;28;20589;-76
2022/03/24 07:45:38;;;;;;;17.97;10.30;;;13.40;1.00;;;;;;5059340;28;21021;-76
2022/03/24 07:48:13;;;;;;;13.13;10.27;;;13.60;1.00;;;;;;5063048;28;20487;-76
2022/03/24 07:50:44;;;;;;;15.43;10.33;;;13.70;1.00;;;;;;5063902;28;20454;-77
2022/03/24 07:53:40;;;;;;;13.90;10.27;;;13.70;1.00;;;;;;5057094;28;20970;-76
2022/03/24 07:56:08;;;;;;;12.40;9.83;;;13.90;1.00;;;;;;5063051;28;20464;-77
2022/03/24 07:58:38;;;;;;;15.07;11.43;;;14.10;1.00;;;;;;5062698;28;20479;-77
2022/03/24 08:01:07;;;;;;;16.80;11.70;;;14.20;1.00;;;;;;5060087;28;20459;-77
2022/03/24 08:03:36;;;;;;;17.63;12.00;;;14.40;1.00;;;;;;5055736;28;20444;-76
2022/03/24 08:06:05;;;;;;;13.43;10.43;;;14.70;1.00;;;;;;5062538;28;20883;-76
2022/03/24 08:08:33;;;;;;;19.20;11.53;;;14.90;1.00;;;;;;5062016;28;21032;-76
2022/03/24 08:11:01;;;;;;;14.50;11.50;;;15.10;1.00;;;;;;5062684;28;20465;-76
2022/03/24 08:13:30;;;;;;;15.13;10.00;;;15.30;1.00;;;;;;5053751;28;20481;-77
2022/03/24 08:15:58;;;;;;;16.63;9.60;;;15.50;1.00;;;;;;5059397;28;20453;-76
2022/03/24 08:18:26;;;;;;;13.67;11.97;;;15.80;1.00;;;;;;5062918;28;20519;-76
2022/03/24 08:20:56;;;;;;;15.20;10.20;;;16.00;1.00;;;;;;5058901;28;20456;-74
2022/03/24 08:23:24;;;;;;;12.90;11.00;;;16.10;1.00;;;;;;5058838;28;20460;-74
2022/03/24 08:25:53;;;;;;;15.17;10.00;;;16.20;1.00;;;;;;5062472;28;20493;-74
2022/03/24 08:28:22;;;;;;;15.03;9.93;;;16.30;1.00;;;;;;5059744;28;20484;-75
2022/03/24 08:30:50;;;;;;;16.37;10.00;;;16.40;1.00;;;;;;5063791;28;20447;-74
2022/03/24 08:33:18;;;;;;;15.43;10.10;;;16.50;1.00;;;;;;5058062;28;20454;-74
2022/03/24 08:35:46;;;;;;;20.10;10.27;;;16.50;1.00;;;;;;5059342;28;20582;-74
2022/03/24 08:38:16;;;;;;;16.77;11.43;;;16.50;1.00;;;;;;5063055;28;20995;-76
2022/03/24 08:40:44;;;;;;;17.27;11.60;;;16.50;1.00;;;;;;5062171;28;20463;-76
2022/03/24 08:43:12;;;;;;;15.00;10.63;;;16.50;1.00;;;;;;5058423;28;20560;-75
2022/03/24 08:45:41;;;;;;;14.57;10.47;;;16.60;1.00;;;;;;5062713;28;21029;-74
2022/03/24 08:48:09;;;;;;;23.70;11.83;;;16.60;1.00;;;;;;5053851;28;20490;-74
2022/03/24 08:50:38;;;;;;;27.33;16.30;;;16.50;1.00;;;;;;5060719;28;20454;-74
2022/03/24 08:53:06;;;;;;;20.57;15.00;;;16.50;1.00;;;;;;5058677;28;20203;-76
2022/03/24 08:55:36;;;;;;;22.17;15.93;;;16.20;1.00;;;;;;5058928;28;20444;-76
2022/03/24 08:58:04;;;;;;;26.17;17.70;;;15.90;1.00;;;;;;5065129;28;20471;-76
2022/03/24 09:00:33;;;;;;;22.50;14.33;;;15.60;1.00;;;;;;5069055;28;20456;-79
2022/03/24 09:03:01;;;;;;;20.40;14.87;;;15.40;1.00;;;;;;5065299;28;20542;-76
2022/03/24 09:05:30;;;;;;;25.00;16.80;;;15.40;1.00;;;;;;5069907;28;20490;-76
2022/03/24 09:07:58;;;;;;;28.20;18.03;;;15.30;1.00;;;;;;5068486;28;20481;-76
2022/03/24 09:10:26;;;;;;;25.20;15.90;;;15.30;1.00;;;;;;5067610;28;20535;-76
2022/03/24 09:12:56;;;;;;;25.03;16.40;;;15.30;1.00;;;;;;5060879;28;21032;-76
2022/03/24 09:15:24;;;;;;;27.27;17.30;;;15.50;1.00;;;;;;5063451;28;20459;-77
2022/03/24 09:17:52;;;;;;;24.90;17.73;;;15.60;1.00;;;;;;5061329;28;20544;-76
2022/03/24 09:20:23;;;;;;;27.60;17.83;;;15.60;1.00;;;;;;5059321;28;20465;-77
2022/03/24 09:22:51;;;;;;;23.90;15.90;;;15.80;1.00;;;;;;5067266;28;20469;-77
2022/03/24 09:25:20;;;;;;;25.37;17.57;;;15.90;1.00;;;;;;5067138;28;20570;-77
2022/03/24 09:27:49;;;;;;;24.13;16.77;;;16.00;1.00;;;;;;5068127;28;20583;-76
2022/03/24 09:30:20;;;;;;;22.83;15.47;;;16.10;1.00;;;;;;5058685;28;21021;-76
2022/03/24 09:32:49;;;;;;;20.17;14.57;;;16.20;1.00;;;;;;5061495;28;20449;-77
2022/03/24 09:35:17;;;;;;;23.10;14.53;;;16.40;1.00;;;;;;5067027;28;20459;-76
2022/03/24 09:37:46;;;;;;;21.93;15.63;;;16.40;1.00;;;;;;5064170;28;20472;-77
2022/03/24 09:40:15;;;;;;;20.53;14.50;;;16.50;1.00;;;;;;5067662;28;20453;-77
2022/03/24 09:42:43;;;;;;;23.70;15.30;;;16.60;1.00;;;;;;5068285;28;20461;-76
2022/03/24 09:45:14;;;;;;;20.23;14.33;;;16.70;1.00;;;;;;5067833;28;20511;-76
2022/03/24 09:47:43;;;;;;;23.77;15.43;;;16.80;1.00;;;;;;5066641;28;20486;-77
2022/03/24 09:50:14;;;;;;;20.43;15.07;;;16.90;1.00;;;;;;5061065;28;21298;-76
2022/03/24 09:52:42;;;;;;;18.70;13.43;;;17.00;1.00;;;;;;5066294;28;20989;-76
2022/03/24 09:55:17;;;;;;;19.73;13.50;;;17.10;1.00;;;;;;5062626;28;20532;-76
2022/03/24 09:57:47;;;;;;;22.40;15.23;;;17.10;1.00;;;;;;5059180;28;20478;-76
2022/03/24 10:00:36;;;;;;;19.93;13.30;;;17.20;1.00;;;;;;5059017;28;20446;-78
2022/03/24 10:03:12;;;;;;;15.43;12.00;;;17.30;1.00;;;;;;5061863;28;20450;-78
2022/03/24 10:05:56;;;;;;;15.70;11.10;;;17.50;1.00;;;;;;5057377;28;20220;-77
2022/03/24 10:08:25;;;;;;;15.63;11.33;;;17.60;1.00;;;;;;5058509;28;20470;-77
2022/03/24 10:10:58;;;;;;;14.03;10.73;;;17.80;1.00;;;;;;5055580;28;20990;-76
2022/03/24 10:13:45;;;;;;;13.53;9.87;;;17.90;1.00;;;;;;5058436;28;20515;-78
2022/03/24 10:16:38;;;;;;;13.97;10.73;;;18.00;1.00;;;;;;5056198;28;20542;-77
2022/03/24 10:19:09;;;;;;;17.90;11.83;;;18.10;1.00;;;;;;5056134;28;20466;-77
2022/03/24 10:21:39;;;;;;;17.37;12.10;;;18.20;1.00;;;;;;5058287;28;20465;-77
2022/03/24 10:24:11;;;;;;;17.57;12.83;;;18.40;1.00;;;;;;5053566;28;20973;-77
2022/03/24 10:26:44;;;;;;;18.63;12.77;;;18.40;1.00;;;;;;5062569;28;20551;-77
2022/03/24 10:29:14;;;;;;;14.67;10.40;;;18.50;1.00;;;;;;5056959;28;21060;-77
2022/03/24 10:31:43;;;;;;;14.50;10.63;;;18.60;1.00;;;;;;5059837;28;20459;-76
2022/03/24 10:34:13;;;;;;;15.70;11.77;;;18.60;1.00;;;;;;5057140;28;21019;-77
2022/03/24 10:36:42;;;;;;;13.03;10.33;;;18.70;1.00;;;;;;5060759;28;21065;-76
2022/03/24 10:39:10;;;;;;;15.73;11.30;;;18.70;1.00;;;;;;5057600;28;20466;-77
2022/03/24 10:41:40;;;;;;;14.00;10.87;;;18.80;1.00;;;;;;5061088;28;20447;-77
2022/03/24 10:44:11;;;;;;;16.10;11.90;;;18.90;1.00;;;;;;5059734;28;20458;-77
2022/03/24 10:46:42;;;;;;;16.23;11.77;;;18.90;1.00;;;;;;5059711;28;20474;-77
2022/03/24 10:49:24;;;;;;;14.17;10.80;;;18.80;1.00;;;;;;5058080;28;20470;-77
2022/03/24 10:51:58;;;;;;;14.27;10.50;;;18.90;1.00;;;;;;5055627;28;20462;-76
2022/03/24 10:54:30;;;;;;;13.00;10.03;;;19.00;1.00;;;;;;5061503;28;20500;-76
2022/03/24 10:57:04;;;;;;;11.87;10.10;;;19.10;1.00;;;;;;5063796;28;20504;-76
2022/03/24 10:59:38;;;;;;;11.83;9.43;;;19.20;1.00;;;;;;5058278;28;20546;-77
2022/03/24 11:02:07;;;;;;;10.90;9.77;;;19.30;1.00;;;;;;5062319;28;20540;-77
2022/03/24 11:04:37;;;;;;;11.83;8.73;;;19.40;1.00;;;;;;5059100;28;21114;-76
2022/03/24 11:07:06;;;;;;;10.53;8.83;;;19.40;1.00;;;;;;5058221;28;20474;-76
2022/03/24 11:09:35;;;;;;;15.37;9.00;;;19.50;1.00;;;;;;5060855;28;20448;-77
2022/03/24 11:12:27;;;;;;;11.77;9.20;;;19.60;1.00;;;;;;5063169;28;20455;-77
2022/03/24 11:14:57;;;;;;;10.47;9.03;;;19.60;1.00;;;;;;5057757;28;20449;-75
2022/03/24 11:17:27;;;;;;;13.70;9.87;;;19.70;1.00;;;;;;5054274;28;20503;-76
2022/03/24 11:20:20;;;;;;;13.77;9.63;;;19.70;1.00;;;;;;5058517;28;20450;-76
2022/03/24 11:22:52;;;;;;;13.33;9.13;;;19.70;1.00;;;;;;5061445;28;20446;-77
2022/03/24 11:25:21;;;;;;;10.73;8.87;;;19.80;1.00;;;;;;5066714;28;20458;-76
2022/03/24 11:27:51;;;;;;;11.00;8.47;;;19.80;1.00;;;;;;5065665;28;20490;-77
2022/03/24 11:30:20;;;;;;;8.60;7.67;;;19.80;1.00;;;;;;5058441;28;20455;-77
2022/03/24 11:32:50;;;;;;;12.27;9.00;;;19.90;1.00;;;;;;5062606;28;20458;-78
2022/03/24 11:35:21;;;;;;;10.03;7.80;;;19.90;1.00;;;;;;5060322;28;20454;-76
2022/03/24 11:37:55;;;;;;;7.73;6.93;;;19.90;1.00;;;;;;5067301;28;20564;-76
2022/03/24 11:40:26;;;;;;;13.27;10.30;;;20.00;1.00;;;;;;5064864;28;20442;-78
2022/03/24 11:42:59;;;;;;;13.40;10.10;;;20.00;1.00;;;;;;5066555;28;20461;-77
2022/03/24 11:45:29;;;;;;;9.33;7.80;;;20.00;1.00;;;;;;5060197;28;20519;-77
2022/03/24 11:48:06;;;;;;;9.73;8.20;;;20.10;1.00;;;;;;5060611;28;20493;-76
2022/03/24 11:50:42;;;;;;;12.13;7.90;;;20.10;1.00;;;;;;5059730;28;20453;-76
2022/03/24 11:53:12;;;;;;;10.40;8.00;;;20.10;1.00;;;;;;5058502;28;20462;-77
2022/03/24 11:55:40;;;;;;;9.70;8.27;;;20.10;1.00;;;;;;5061213;28;20496;-76
2022/03/24 11:58:09;;;;;;;8.20;7.40;;;20.10;1.00;;;;;;5061714;28;20503;-76
2022/03/24 12:00:43;;;;;;;11.93;8.60;;;20.20;1.00;;;;;;5059551;28;20456;-77
2022/03/24 12:03:42;;;;;;;9.97;7.87;;;20.20;1.00;;;;;;5063946;28;20455;-76
2022/03/24 12:06:13;;;;;;;13.10;8.10;;;20.20;1.00;;;;;;5065890;28;20850;-77
2022/03/24 12:08:52;;;;;;;10.80;7.83;;;20.40;1.00;;;;;;5060843;28;20478;-77
2022/03/24 12:11:39;;;;;;;11.50;8.17;;;20.60;1.00;;;;;;5058329;28;20463;-77
2022/03/24 12:14:11;;;;;;;11.90;8.13;;;20.70;1.00;;;;;;5064575;28;20447;-77
2022/03/24 12:16:41;;;;;;;9.80;8.90;;;20.80;1.00;;;;;;5061390;28;20455;-77
2022/03/24 12:19:42;;;;;;;10.10;8.07;;;20.80;1.00;;;;;;5062066;28;20832;-77
2022/03/24 12:22:45;;;;;;;12.70;9.57;;;20.90;1.00;;;;;;5064371;28;23209;-77
2022/03/24 12:25:30;;;;;;;9.93;8.73;;;20.70;1.00;;;;;;5056536;28;20491;-79
2022/03/24 12:28:05;;;;;;;9.63;8.63;;;20.80;1.00;;;;;;5061645;28;20501;-77
2022/03/24 12:31:07;;;;;;;10.63;8.87;;;20.90;1.00;;;;;;5061591;28;20445;-77
2022/03/24 12:33:49;;;;;;;10.07;8.23;;;20.90;1.00;;;;;;5047205;28;20829;-77
2022/03/24 12:36:40;;;;;;;10.50;8.97;;;20.90;1.00;;;;;;5060330;28;20451;-79
2022/03/24 12:39:10;;;;;;;14.33;10.37;;;21.00;1.00;;;;;;5057699;28;20485;-75
2022/03/24 12:41:38;;;;;;;9.87;8.40;;;21.00;1.00;;;;;;5065738;28;20473;-78
2022/03/24 12:44:09;;;;;;;13.43;8.83;;;21.00;1.00;;;;;;5059706;28;20451;-77
2022/03/24 12:46:44;;;;;;;9.20;8.13;;;21.00;1.00;;;;;;5066042;28;20486;-77
2022/03/24 12:49:33;;;;;;;9.03;7.70;;;21.10;1.00;;;;;;5062458;28;20484;-77
2022/03/24 12:52:06;;;;;;;10.27;9.13;;;21.10;1.00;;;;;;5060057;28;20458;-77
2022/03/24 12:54:45;;;;;;;9.70;8.73;;;21.20;1.00;;;;;;5062363;28;20531;-77
2022/03/24 12:57:33;;;;;;;9.40;7.90;;;21.30;1.00;;;;;;5057489;28;20556;-78
2022/03/24 13:00:02;;;;;;;8.70;6.70;;;21.40;1.00;;;;;;5055749;28;20449;-77
2022/03/24 13:02:32;;;;;;;8.70;7.10;;;21.40;2.00;;;;;;5055717;28;20458;-77